sensor_id;sensor_type;location;lat;lon;timestamp;P1;durP1;ratioP1;P2;durP2;ratioP2
32200;SDS011;18701;45.588;5.288;2023-11-19T00:02:08;10.57;;;4.75;;
32200;SDS011;18701;45.588;5.288;2023-11-19T00:04:37;10.88;;;4.43;;
32200;SDS011;18701;45.588;5.288;2023-11-19T00:07:05;8.23;;;4.30;;
32200;SDS011;18701;45.588;5.288;2023-11-19T00:09:33;11.00;;;4.30;;
32200;SDS011;18701;45.588;5.288;2023-11-19T00:12:01;12.48;;;4.70;;
32200;SDS011;18701;45.588;5.288;2023-11-19T00:14:27;9.40;;;4.32;;
32200;SDS011;18701;45.588;5.288;2023-11-19T00:16:54;8.55;;;4.03;;
32200;SDS011;18701;45.588;5.288;2023-11-19T00:19:19;11.18;;;4.10;;
32200;SDS011;18701;45.588;5.288;2023-11-19T00:21:45;8.50;;;3.95;;
32200;SDS011;18701;45.588;5.288;2023-11-19T00:24:11;7.93;;;4.47;;
32200;SDS011;18701;45.588;5.288;2023-11-19T00:26:37;9.43;;;4.28;;
32200;SDS011;18701;45.588;5.288;2023-11-19T00:29:06;8.60;;;4.70;;
32200;SDS011;18701;45.588;5.288;2023-11-19T00:31:32;6.28;;;3.60;;
32200;SDS011;18701;45.588;5.288;2023-11-19T00:33:58;8.68;;;3.42;;
32200;SDS011;18701;45.588;5.288;2023-11-19T00:36:23;9.25;;;4.18;;
32200;SDS011;18701;45.588;5.288;2023-11-19T00:38:50;8.23;;;4.40;;
32200;SDS011;18701;45.588;5.288;2023-11-19T00:41:17;9.23;;;4.47;;
32200;SDS011;18701;45.588;5.288;2023-11-19T00:43:43;9.60;;;4.72;;
32200;SDS011;18701;45.588;5.288;2023-11-19T00:46:09;8.55;;;4.90;;
32200;SDS011;18701;45.588;5.288;2023-11-19T00:48:36;10.45;;;5.25;;
32200;SDS011;18701;45.588;5.288;2023-11-19T00:51:01;10.20;;;4.72;;
32200;SDS011;18701;45.588;5.288;2023-11-19T00:53:29;9.30;;;4.50;;
32200;SDS011;18701;45.588;5.288;2023-11-19T00:55:54;10.80;;;4.25;;
32200;SDS011;18701;45.588;5.288;2023-11-19T00:58:20;8.18;;;4.45;;
32200;SDS011;18701;45.588;5.288;2023-11-19T01:00:46;6.50;;;4.00;;
32200;SDS011;18701;45.588;5.288;2023-11-19T01:03:12;8.82;;;4.35;;
32200;SDS011;18701;45.588;5.288;2023-11-19T01:05:37;6.88;;;3.90;;
32200;SDS011;18701;45.588;5.288;2023-11-19T01:08:04;7.75;;;4.25;;
32200;SDS011;18701;45.588;5.288;2023-11-19T01:10:30;12.73;;;4.05;;
32200;SDS011;18701;45.588;5.288;2023-11-19T01:12:56;9.80;;;3.63;;
32200;SDS011;18701;45.588;5.288;2023-11-19T01:15:22;9.27;;;4.35;;
32200;SDS011;18701;45.588;5.288;2023-11-19T01:17:48;7.53;;;3.70;;
32200;SDS011;18701;45.588;5.288;2023-11-19T01:20:13;8.63;;;4.28;;
32200;SDS011;18701;45.588;5.288;2023-11-19T01:22:39;9.75;;;4.30;;
32200;SDS011;18701;45.588;5.288;2023-11-19T01:25:05;9.20;;;4.47;;
32200;SDS011;18701;45.588;5.288;2023-11-19T01:27:32;10.50;;;4.10;;
32200;SDS011;18701;45.588;5.288;2023-11-19T01:29:59;8.10;;;3.90;;
32200;SDS011;18701;45.588;5.288;2023-11-19T01:32:29;8.60;;;4.65;;
32200;SDS011;18701;45.588;5.288;2023-11-19T01:34:54;9.27;;;4.47;;
32200;SDS011;18701;45.588;5.288;2023-11-19T01:37:20;10.82;;;4.15;;
32200;SDS011;18701;45.588;5.288;2023-11-19T01:39:46;10.10;;;4.55;;
32200;SDS011;18701;45.588;5.288;2023-11-19T01:42:11;7.28;;;4.72;;
32200;SDS011;18701;45.588;5.288;2023-11-19T01:44:37;8.73;;;4.20;;
32200;SDS011;18701;45.588;5.288;2023-11-19T01:47:03;8.43;;;4.20;;
32200;SDS011;18701;45.588;5.288;2023-11-19T01:49:29;8.07;;;4.75;;
32200;SDS011;18701;45.588;5.288;2023-11-19T01:51:57;10.30;;;4.07;;
32200;SDS011;18701;45.588;5.288;2023-11-19T01:54:23;6.65;;;3.58;;
32200;SDS011;18701;45.588;5.288;2023-11-19T01:56:49;8.27;;;4.35;;
32200;SDS011;18701;45.588;5.288;2023-11-19T01:59:15;8.35;;;4.93;;
32200;SDS011;18701;45.588;5.288;2023-11-19T02:01:41;7.40;;;3.85;;
32200;SDS011;18701;45.588;5.288;2023-11-19T02:04:07;8.45;;;3.88;;
32200;SDS011;18701;45.588;5.288;2023-11-19T02:06:34;8.27;;;3.45;;
32200;SDS011;18701;45.588;5.288;2023-11-19T02:09:01;5.88;;;3.40;;
32200;SDS011;18701;45.588;5.288;2023-11-19T02:11:32;5.75;;;3.20;;
32200;SDS011;18701;45.588;5.288;2023-11-19T02:13:59;6.93;;;2.63;;
32200;SDS011;18701;45.588;5.288;2023-11-19T02:16:25;10.73;;;3.47;;
32200;SDS011;18701;45.588;5.288;2023-11-19T02:18:51;8.88;;;3.92;;
32200;SDS011;18701;45.588;5.288;2023-11-19T02:21:16;6.38;;;3.65;;
32200;SDS011;18701;45.588;5.288;2023-11-19T02:23:43;6.45;;;3.20;;
32200;SDS011;18701;45.588;5.288;2023-11-19T02:28:48;8.70;;;3.00;;
32200;SDS011;18701;45.588;5.288;2023-11-19T02:31:13;6.72;;;3.70;;
32200;SDS011;18701;45.588;5.288;2023-11-19T02:33:39;7.68;;;3.50;;
32200;SDS011;18701;45.588;5.288;2023-11-19T02:36:06;7.32;;;4.00;;
32200;SDS011;18701;45.588;5.288;2023-11-19T02:38:32;10.40;;;4.47;;
32200;SDS011;18701;45.588;5.288;2023-11-19T02:40:59;6.82;;;3.15;;
32200;SDS011;18701;45.588;5.288;2023-11-19T02:43:30;12.93;;;3.83;;
32200;SDS011;18701;45.588;5.288;2023-11-19T02:45:57;5.70;;;3.38;;
32200;SDS011;18701;45.588;5.288;2023-11-19T02:48:22;9.50;;;3.72;;
32200;SDS011;18701;45.588;5.288;2023-11-19T02:50:48;7.70;;;3.58;;
32200;SDS011;18701;45.588;5.288;2023-11-19T02:53:13;9.63;;;4.00;;
32200;SDS011;18701;45.588;5.288;2023-11-19T02:55:39;7.25;;;3.33;;
32200;SDS011;18701;45.588;5.288;2023-11-19T02:58:06;6.20;;;3.88;;
32200;SDS011;18701;45.588;5.288;2023-11-19T03:00:44;8.73;;;3.60;;
32200;SDS011;18701;45.588;5.288;2023-11-19T03:03:21;6.47;;;3.35;;
32200;SDS011;18701;45.588;5.288;2023-11-19T03:05:53;5.28;;;2.95;;
32200;SDS011;18701;45.588;5.288;2023-11-19T03:08:20;7.07;;;3.45;;
32200;SDS011;18701;45.588;5.288;2023-11-19T03:10:45;6.22;;;3.33;;
32200;SDS011;18701;45.588;5.288;2023-11-19T03:13:12;9.02;;;3.67;;
32200;SDS011;18701;45.588;5.288;2023-11-19T03:15:39;8.80;;;3.25;;
32200;SDS011;18701;45.588;5.288;2023-11-19T03:18:06;10.50;;;3.67;;
32200;SDS011;18701;45.588;5.288;2023-11-19T03:20:31;7.50;;;3.20;;
32200;SDS011;18701;45.588;5.288;2023-11-19T03:22:57;8.38;;;4.10;;
32200;SDS011;18701;45.588;5.288;2023-11-19T03:25:26;7.28;;;3.40;;
32200;SDS011;18701;45.588;5.288;2023-11-19T03:27:52;7.32;;;2.95;;
32200;SDS011;18701;45.588;5.288;2023-11-19T03:30:18;4.90;;;2.95;;
32200;SDS011;18701;45.588;5.288;2023-11-19T03:32:45;10.85;;;3.40;;
32200;SDS011;18701;45.588;5.288;2023-11-19T03:35:11;7.10;;;3.45;;
32200;SDS011;18701;45.588;5.288;2023-11-19T03:37:37;9.32;;;3.45;;
32200;SDS011;18701;45.588;5.288;2023-11-19T03:40:04;7.20;;;3.45;;
32200;SDS011;18701;45.588;5.288;2023-11-19T03:42:31;9.43;;;3.38;;
32200;SDS011;18701;45.588;5.288;2023-11-19T03:44:56;10.43;;;3.00;;
32200;SDS011;18701;45.588;5.288;2023-11-19T03:47:22;14.50;;;7.18;;
32200;SDS011;18701;45.588;5.288;2023-11-19T03:49:49;18.38;;;7.22;;
32200;SDS011;18701;45.588;5.288;2023-11-19T03:52:14;13.52;;;5.93;;
32200;SDS011;18701;45.588;5.288;2023-11-19T03:54:40;6.70;;;3.50;;
32200;SDS011;18701;45.588;5.288;2023-11-19T03:57:06;8.05;;;3.20;;
32200;SDS011;18701;45.588;5.288;2023-11-19T03:59:32;8.13;;;4.03;;
32200;SDS011;18701;45.588;5.288;2023-11-19T04:01:58;10.65;;;3.92;;
32200;SDS011;18701;45.588;5.288;2023-11-19T04:04:26;6.60;;;3.55;;
32200;SDS011;18701;45.588;5.288;2023-11-19T04:06:52;7.68;;;4.30;;
32200;SDS011;18701;45.588;5.288;2023-11-19T04:09:18;4.95;;;3.15;;
32200;SDS011;18701;45.588;5.288;2023-11-19T04:11:43;7.35;;;3.78;;
32200;SDS011;18701;45.588;5.288;2023-11-19T04:14:12;8.32;;;3.88;;
32200;SDS011;18701;45.588;5.288;2023-11-19T04:16:42;9.38;;;3.92;;
32200;SDS011;18701;45.588;5.288;2023-11-19T04:19:09;6.10;;;3.42;;
32200;SDS011;18701;45.588;5.288;2023-11-19T04:21:35;6.28;;;3.60;;
32200;SDS011;18701;45.588;5.288;2023-11-19T04:24:01;7.47;;;3.75;;
32200;SDS011;18701;45.588;5.288;2023-11-19T04:26:26;6.40;;;3.72;;
32200;SDS011;18701;45.588;5.288;2023-11-19T04:28:52;5.88;;;3.60;;
32200;SDS011;18701;45.588;5.288;2023-11-19T04:31:17;6.80;;;3.65;;
32200;SDS011;18701;45.588;5.288;2023-11-19T04:33:43;7.53;;;3.78;;
32200;SDS011;18701;45.588;5.288;2023-11-19T04:36:09;9.45;;;4.30;;
32200;SDS011;18701;45.588;5.288;2023-11-19T04:38:35;10.07;;;4.00;;
32200;SDS011;18701;45.588;5.288;2023-11-19T04:41:03;10.35;;;4.00;;
32200;SDS011;18701;45.588;5.288;2023-11-19T04:43:30;9.82;;;3.85;;
32200;SDS011;18701;45.588;5.288;2023-11-19T04:45:56;7.60;;;4.05;;
32200;SDS011;18701;45.588;5.288;2023-11-19T04:48:22;10.18;;;4.13;;
32200;SDS011;18701;45.588;5.288;2023-11-19T04:50:48;12.40;;;3.85;;
32200;SDS011;18701;45.588;5.288;2023-11-19T04:53:15;8.90;;;4.13;;
32200;SDS011;18701;45.588;5.288;2023-11-19T04:55:41;10.15;;;4.70;;
32200;SDS011;18701;45.588;5.288;2023-11-19T04:58:06;8.65;;;4.70;;
32200;SDS011;18701;45.588;5.288;2023-11-19T05:00:32;9.70;;;4.57;;
32200;SDS011;18701;45.588;5.288;2023-11-19T05:02:58;9.45;;;4.13;;
32200;SDS011;18701;45.588;5.288;2023-11-19T05:05:23;11.88;;;4.40;;
32200;SDS011;18701;45.588;5.288;2023-11-19T05:07:49;7.55;;;4.25;;
32200;SDS011;18701;45.588;5.288;2023-11-19T05:10:14;7.47;;;4.10;;
32200;SDS011;18701;45.588;5.288;2023-11-19T05:12:40;10.75;;;4.03;;
32200;SDS011;18701;45.588;5.288;2023-11-19T05:15:06;7.80;;;3.75;;
32200;SDS011;18701;45.588;5.288;2023-11-19T05:17:33;7.35;;;4.00;;
32200;SDS011;18701;45.588;5.288;2023-11-19T05:19:58;9.85;;;3.40;;
32200;SDS011;18701;45.588;5.288;2023-11-19T05:22:24;6.95;;;3.95;;
32200;SDS011;18701;45.588;5.288;2023-11-19T05:24:51;8.48;;;4.22;;
32200;SDS011;18701;45.588;5.288;2023-11-19T05:27:16;9.02;;;4.70;;
32200;SDS011;18701;45.588;5.288;2023-11-19T05:29:42;8.80;;;4.57;;
32200;SDS011;18701;45.588;5.288;2023-11-19T05:32:09;7.65;;;4.28;;
32200;SDS011;18701;45.588;5.288;2023-11-19T05:34:35;9.18;;;4.55;;
32200;SDS011;18701;45.588;5.288;2023-11-19T05:37:00;9.75;;;4.30;;
32200;SDS011;18701;45.588;5.288;2023-11-19T05:39:27;10.32;;;4.35;;
32200;SDS011;18701;45.588;5.288;2023-11-19T05:41:53;7.65;;;4.13;;
32200;SDS011;18701;45.588;5.288;2023-11-19T05:44:18;8.77;;;4.75;;
32200;SDS011;18701;45.588;5.288;2023-11-19T05:46:44;7.43;;;4.18;;
32200;SDS011;18701;45.588;5.288;2023-11-19T05:49:11;11.25;;;4.97;;
32200;SDS011;18701;45.588;5.288;2023-11-19T05:51:39;8.63;;;4.53;;
32200;SDS011;18701;45.588;5.288;2023-11-19T05:54:09;8.07;;;4.50;;
32200;SDS011;18701;45.588;5.288;2023-11-19T05:56:35;8.18;;;4.70;;
32200;SDS011;18701;45.588;5.288;2023-11-19T05:59:01;11.02;;;4.68;;
32200;SDS011;18701;45.588;5.288;2023-11-19T06:01:36;7.82;;;4.32;;
32200;SDS011;18701;45.588;5.288;2023-11-19T06:04:01;6.90;;;3.50;;
32200;SDS011;18701;45.588;5.288;2023-11-19T06:06:28;8.18;;;4.22;;
32200;SDS011;18701;45.588;5.288;2023-11-19T06:08:53;9.23;;;3.95;;
32200;SDS011;18701;45.588;5.288;2023-11-19T06:11:20;9.75;;;4.40;;
32200;SDS011;18701;45.588;5.288;2023-11-19T06:13:45;9.40;;;3.78;;
32200;SDS011;18701;45.588;5.288;2023-11-19T06:16:13;6.63;;;3.70;;
32200;SDS011;18701;45.588;5.288;2023-11-19T06:18:39;8.75;;;4.43;;
32200;SDS011;18701;45.588;5.288;2023-11-19T06:21:06;13.90;;;3.78;;
32200;SDS011;18701;45.588;5.288;2023-11-19T06:23:32;7.85;;;3.97;;
32200;SDS011;18701;45.588;5.288;2023-11-19T06:25:57;10.52;;;4.45;;
32200;SDS011;18701;45.588;5.288;2023-11-19T06:28:23;8.48;;;3.92;;
32200;SDS011;18701;45.588;5.288;2023-11-19T06:30:49;8.60;;;4.28;;
32200;SDS011;18701;45.588;5.288;2023-11-19T06:33:15;8.57;;;4.57;;
32200;SDS011;18701;45.588;5.288;2023-11-19T06:35:41;8.23;;;3.97;;
32200;SDS011;18701;45.588;5.288;2023-11-19T06:38:06;10.27;;;3.95;;
32200;SDS011;18701;45.588;5.288;2023-11-19T06:40:32;6.13;;;3.45;;
32200;SDS011;18701;45.588;5.288;2023-11-19T06:43:00;10.65;;;4.30;;
32200;SDS011;18701;45.588;5.288;2023-11-19T06:45:25;7.32;;;3.78;;
32200;SDS011;18701;45.588;5.288;2023-11-19T06:47:53;7.20;;;4.30;;
32200;SDS011;18701;45.588;5.288;2023-11-19T06:50:18;7.28;;;3.97;;
32200;SDS011;18701;45.588;5.288;2023-11-19T06:52:44;8.52;;;3.85;;
32200;SDS011;18701;45.588;5.288;2023-11-19T06:55:10;12.63;;;4.43;;
32200;SDS011;18701;45.588;5.288;2023-11-19T06:57:36;8.43;;;4.43;;
32200;SDS011;18701;45.588;5.288;2023-11-19T07:00:02;10.52;;;4.47;;
32200;SDS011;18701;45.588;5.288;2023-11-19T07:02:28;9.70;;;4.22;;
32200;SDS011;18701;45.588;5.288;2023-11-19T07:04:53;7.18;;;3.90;;
32200;SDS011;18701;45.588;5.288;2023-11-19T07:07:19;6.20;;;3.70;;
32200;SDS011;18701;45.588;5.288;2023-11-19T07:09:45;9.25;;;3.95;;
32200;SDS011;18701;45.588;5.288;2023-11-19T07:12:10;8.85;;;4.65;;
32200;SDS011;18701;45.588;5.288;2023-11-19T07:14:38;11.25;;;3.80;;
32200;SDS011;18701;45.588;5.288;2023-11-19T07:17:03;10.15;;;4.03;;
32200;SDS011;18701;45.588;5.288;2023-11-19T07:19:29;6.00;;;3.90;;
32200;SDS011;18701;45.588;5.288;2023-11-19T07:21:54;6.00;;;3.78;;
32200;SDS011;18701;45.588;5.288;2023-11-19T07:24:21;7.22;;;4.03;;
32200;SDS011;18701;45.588;5.288;2023-11-19T07:26:47;8.95;;;4.45;;
32200;SDS011;18701;45.588;5.288;2023-11-19T07:29:13;9.18;;;4.18;;
32200;SDS011;18701;45.588;5.288;2023-11-19T07:31:41;10.40;;;4.88;;
32200;SDS011;18701;45.588;5.288;2023-11-19T07:34:09;13.13;;;5.43;;
32200;SDS011;18701;45.588;5.288;2023-11-19T07:36:35;9.65;;;4.47;;
32200;SDS011;18701;45.588;5.288;2023-11-19T07:39:01;9.05;;;4.55;;
32200;SDS011;18701;45.588;5.288;2023-11-19T07:41:28;8.57;;;4.97;;
32200;SDS011;18701;45.588;5.288;2023-11-19T07:43:54;8.68;;;4.40;;
32200;SDS011;18701;45.588;5.288;2023-11-19T07:46:20;8.50;;;4.60;;
32200;SDS011;18701;45.588;5.288;2023-11-19T07:48:45;6.93;;;3.92;;
32200;SDS011;18701;45.588;5.288;2023-11-19T07:51:14;5.15;;;3.05;;
32200;SDS011;18701;45.588;5.288;2023-11-19T07:53:40;6.65;;;3.05;;
32200;SDS011;18701;45.588;5.288;2023-11-19T07:56:06;5.18;;;3.00;;
32200;SDS011;18701;45.588;5.288;2023-11-19T07:58:32;9.00;;;2.50;;
32200;SDS011;18701;45.588;5.288;2023-11-19T08:00:58;6.95;;;3.03;;
32200;SDS011;18701;45.588;5.288;2023-11-19T08:03:24;5.40;;;2.58;;
32200;SDS011;18701;45.588;5.288;2023-11-19T08:05:49;3.50;;;2.45;;
32200;SDS011;18701;45.588;5.288;2023-11-19T08:08:15;7.35;;;2.88;;
32200;SDS011;18701;45.588;5.288;2023-11-19T08:10:41;3.65;;;2.67;;
32200;SDS011;18701;45.588;5.288;2023-11-19T08:13:09;10.27;;;2.60;;
32200;SDS011;18701;45.588;5.288;2023-11-19T08:15:35;5.15;;;2.92;;
32200;SDS011;18701;45.588;5.288;2023-11-19T08:18:01;6.97;;;2.85;;
32200;SDS011;18701;45.588;5.288;2023-11-19T08:20:27;5.72;;;2.97;;
32200;SDS011;18701;45.588;5.288;2023-11-19T08:22:53;6.60;;;3.03;;
32200;SDS011;18701;45.588;5.288;2023-11-19T08:25:18;7.55;;;3.42;;
32200;SDS011;18701;45.588;5.288;2023-11-19T08:27:44;7.05;;;3.13;;
32200;SDS011;18701;45.588;5.288;2023-11-19T08:30:10;6.43;;;3.25;;
32200;SDS011;18701;45.588;5.288;2023-11-19T08:32:36;12.40;;;3.30;;
32200;SDS011;18701;45.588;5.288;2023-11-19T08:35:01;5.80;;;3.60;;
32200;SDS011;18701;45.588;5.288;2023-11-19T08:37:27;7.45;;;3.40;;
32200;SDS011;18701;45.588;5.288;2023-11-19T08:39:53;6.60;;;3.00;;
32200;SDS011;18701;45.588;5.288;2023-11-19T08:42:18;6.30;;;2.85;;
32200;SDS011;18701;45.588;5.288;2023-11-19T08:44:48;6.60;;;3.03;;
32200;SDS011;18701;45.588;5.288;2023-11-19T08:47:15;6.07;;;2.70;;
32200;SDS011;18701;45.588;5.288;2023-11-19T08:49:44;8.32;;;2.75;;
32200;SDS011;18701;45.588;5.288;2023-11-19T08:52:10;5.82;;;3.28;;
32200;SDS011;18701;45.588;5.288;2023-11-19T08:54:42;6.00;;;3.13;;
32200;SDS011;18701;45.588;5.288;2023-11-19T08:57:08;7.25;;;3.40;;
32200;SDS011;18701;45.588;5.288;2023-11-19T08:59:34;8.18;;;2.97;;
32200;SDS011;18701;45.588;5.288;2023-11-19T09:01:59;6.80;;;3.00;;
32200;SDS011;18701;45.588;5.288;2023-11-19T09:04:25;6.40;;;2.67;;
32200;SDS011;18701;45.588;5.288;2023-11-19T09:06:50;6.15;;;2.75;;
32200;SDS011;18701;45.588;5.288;2023-11-19T09:09:16;5.18;;;2.63;;
32200;SDS011;18701;45.588;5.288;2023-11-19T09:11:42;4.90;;;2.42;;
32200;SDS011;18701;45.588;5.288;2023-11-19T09:14:08;5.57;;;2.75;;
32200;SDS011;18701;45.588;5.288;2023-11-19T09:16:33;6.07;;;2.65;;
32200;SDS011;18701;45.588;5.288;2023-11-19T09:18:59;5.38;;;2.83;;
32200;SDS011;18701;45.588;5.288;2023-11-19T09:21:25;11.18;;;3.75;;
32200;SDS011;18701;45.588;5.288;2023-11-19T09:23:51;4.53;;;2.80;;
32200;SDS011;18701;45.588;5.288;2023-11-19T09:26:19;5.80;;;2.72;;
32200;SDS011;18701;45.588;5.288;2023-11-19T09:28:44;7.18;;;3.13;;
32200;SDS011;18701;45.588;5.288;2023-11-19T09:31:16;8.27;;;3.45;;
32200;SDS011;18701;45.588;5.288;2023-11-19T09:33:43;7.03;;;2.90;;
32200;SDS011;18701;45.588;5.288;2023-11-19T09:36:09;6.97;;;2.85;;
32200;SDS011;18701;45.588;5.288;2023-11-19T09:38:38;5.00;;;2.63;;
32200;SDS011;18701;45.588;5.288;2023-11-19T09:41:07;7.93;;;3.08;;
32200;SDS011;18701;45.588;5.288;2023-11-19T09:43:35;8.00;;;2.80;;
32200;SDS011;18701;45.588;5.288;2023-11-19T09:46:07;8.25;;;3.42;;
32200;SDS011;18701;45.588;5.288;2023-11-19T09:48:36;9.10;;;3.33;;
32200;SDS011;18701;45.588;5.288;2023-11-19T09:51:04;8.77;;;3.25;;
32200;SDS011;18701;45.588;5.288;2023-11-19T09:53:30;5.80;;;3.17;;
32200;SDS011;18701;45.588;5.288;2023-11-19T09:55:57;6.93;;;3.78;;
32200;SDS011;18701;45.588;5.288;2023-11-19T09:58:28;6.78;;;3.60;;
32200;SDS011;18701;45.588;5.288;2023-11-19T10:00:55;8.13;;;2.70;;
32200;SDS011;18701;45.588;5.288;2023-11-19T10:03:20;6.63;;;2.50;;
32200;SDS011;18701;45.588;5.288;2023-11-19T10:05:48;5.75;;;2.53;;
32200;SDS011;18701;45.588;5.288;2023-11-19T10:08:14;4.22;;;1.50;;
32200;SDS011;18701;45.588;5.288;2023-11-19T10:10:39;3.67;;;1.55;;
32200;SDS011;18701;45.588;5.288;2023-11-19T10:13:05;3.70;;;2.00;;
32200;SDS011;18701;45.588;5.288;2023-11-19T10:15:35;3.75;;;1.80;;
32200;SDS011;18701;45.588;5.288;2023-11-19T10:18:02;4.45;;;2.42;;
32200;SDS011;18701;45.588;5.288;2023-11-19T10:20:34;8.95;;;3.50;;
32200;SDS011;18701;45.588;5.288;2023-11-19T10:23:01;7.28;;;4.22;;
32200;SDS011;18701;45.588;5.288;2023-11-19T10:25:27;5.35;;;3.65;;
32200;SDS011;18701;45.588;5.288;2023-11-19T10:27:54;8.15;;;3.88;;
32200;SDS011;18701;45.588;5.288;2023-11-19T10:30:21;13.13;;;3.60;;
32200;SDS011;18701;45.588;5.288;2023-11-19T10:33:10;7.38;;;3.60;;
32200;SDS011;18701;45.588;5.288;2023-11-19T10:35:51;7.38;;;3.42;;
32200;SDS011;18701;45.588;5.288;2023-11-19T10:38:22;7.50;;;4.05;;
32200;SDS011;18701;45.588;5.288;2023-11-19T10:40:48;5.85;;;3.60;;
32200;SDS011;18701;45.588;5.288;2023-11-19T10:43:16;7.07;;;3.67;;
32200;SDS011;18701;45.588;5.288;2023-11-19T10:45:42;9.07;;;3.95;;
32200;SDS011;18701;45.588;5.288;2023-11-19T10:48:08;11.07;;;3.90;;
32200;SDS011;18701;45.588;5.288;2023-11-19T10:50:34;11.27;;;3.90;;
32200;SDS011;18701;45.588;5.288;2023-11-19T10:53:01;6.75;;;3.63;;
32200;SDS011;18701;45.588;5.288;2023-11-19T10:55:28;7.65;;;4.05;;
32200;SDS011;18701;45.588;5.288;2023-11-19T10:57:59;9.45;;;3.35;;
32200;SDS011;18701;45.588;5.288;2023-11-19T11:00:29;6.15;;;3.45;;
32200;SDS011;18701;45.588;5.288;2023-11-19T11:03:01;12.65;;;4.30;;
32200;SDS011;18701;45.588;5.288;2023-11-19T11:05:31;7.45;;;3.13;;
32200;SDS011;18701;45.588;5.288;2023-11-19T11:08:00;6.53;;;3.55;;
32200;SDS011;18701;45.588;5.288;2023-11-19T11:10:26;11.52;;;3.10;;
32200;SDS011;18701;45.588;5.288;2023-11-19T11:12:53;11.23;;;2.88;;
32200;SDS011;18701;45.588;5.288;2023-11-19T11:15:24;8.73;;;3.35;;
32200;SDS011;18701;45.588;5.288;2023-11-19T11:17:57;6.88;;;3.80;;
32200;SDS011;18701;45.588;5.288;2023-11-19T11:20:31;10.20;;;3.75;;
32200;SDS011;18701;45.588;5.288;2023-11-19T11:31:39;6.68;;;3.55;;
32200;SDS011;18701;45.588;5.288;2023-11-19T11:37:18;8.70;;;3.80;;
32200;SDS011;18701;45.588;5.288;2023-11-19T11:39:45;7.43;;;3.08;;
32200;SDS011;18701;45.588;5.288;2023-11-19T11:50:12;7.75;;;3.00;;
32200;SDS011;18701;45.588;5.288;2023-11-19T11:55:28;6.23;;;3.50;;
32200;SDS011;18701;45.588;5.288;2023-11-19T11:58:17;4.65;;;3.00;;
32200;SDS011;18701;45.588;5.288;2023-11-19T12:00:43;6.22;;;3.35;;
32200;SDS011;18701;45.588;5.288;2023-11-19T12:03:11;6.78;;;3.75;;
32200;SDS011;18701;45.588;5.288;2023-11-19T12:05:46;12.65;;;4.43;;
32200;SDS011;18701;45.588;5.288;2023-11-19T12:08:13;14.82;;;3.83;;
32200;SDS011;18701;45.588;5.288;2023-11-19T12:10:47;6.53;;;3.45;;
32200;SDS011;18701;45.588;5.288;2023-11-19T12:13:15;6.30;;;3.70;;
32200;SDS011;18701;45.588;5.288;2023-11-19T12:18:25;9.73;;;3.45;;
32200;SDS011;18701;45.588;5.288;2023-11-19T12:20:51;8.80;;;5.15;;
32200;SDS011;18701;45.588;5.288;2023-11-19T12:23:17;11.80;;;4.80;;
32200;SDS011;18701;45.588;5.288;2023-11-19T12:25:43;8.18;;;4.35;;
32200;SDS011;18701;45.588;5.288;2023-11-19T12:28:14;5.38;;;3.58;;
32200;SDS011;18701;45.588;5.288;2023-11-19T12:30:44;5.72;;;3.60;;
32200;SDS011;18701;45.588;5.288;2023-11-19T12:33:13;6.03;;;3.33;;
32200;SDS011;18701;45.588;5.288;2023-11-19T12:35:43;7.07;;;3.40;;
32200;SDS011;18701;45.588;5.288;2023-11-19T12:38:22;5.85;;;3.40;;
32200;SDS011;18701;45.588;5.288;2023-11-19T12:41:04;8.23;;;4.03;;
32200;SDS011;18701;45.588;5.288;2023-11-19T12:43:31;8.02;;;4.53;;
32200;SDS011;18701;45.588;5.288;2023-11-19T12:45:57;10.10;;;4.97;;
32200;SDS011;18701;45.588;5.288;2023-11-19T12:48:23;14.32;;;6.38;;
32200;SDS011;18701;45.588;5.288;2023-11-19T12:50:56;11.23;;;5.70;;
32200;SDS011;18701;45.588;5.288;2023-11-19T12:53:23;10.65;;;5.28;;
32200;SDS011;18701;45.588;5.288;2023-11-19T12:55:50;8.20;;;4.45;;
32200;SDS011;18701;45.588;5.288;2023-11-19T13:01:03;8.15;;;4.43;;
32200;SDS011;18701;45.588;5.288;2023-11-19T13:03:34;7.70;;;4.32;;
32200;SDS011;18701;45.588;5.288;2023-11-19T13:06:10;10.02;;;3.83;;
32200;SDS011;18701;45.588;5.288;2023-11-19T13:08:44;8.93;;;3.90;;
32200;SDS011;18701;45.588;5.288;2023-11-19T13:11:11;8.32;;;3.80;;
32200;SDS011;18701;45.588;5.288;2023-11-19T13:13:54;7.10;;;3.10;;
32200;SDS011;18701;45.588;5.288;2023-11-19T13:16:24;6.30;;;3.55;;
32200;SDS011;18701;45.588;5.288;2023-11-19T13:18:51;5.32;;;3.60;;
32200;SDS011;18701;45.588;5.288;2023-11-19T13:21:17;9.65;;;4.13;;
32200;SDS011;18701;45.588;5.288;2023-11-19T13:23:43;8.93;;;4.07;;
32200;SDS011;18701;45.588;5.288;2023-11-19T13:26:08;8.88;;;3.67;;
32200;SDS011;18701;45.588;5.288;2023-11-19T13:28:34;8.02;;;4.38;;
32200;SDS011;18701;45.588;5.288;2023-11-19T13:31:00;6.35;;;3.90;;
32200;SDS011;18701;45.588;5.288;2023-11-19T13:33:25;7.22;;;3.97;;
32200;SDS011;18701;45.588;5.288;2023-11-19T13:35:51;8.48;;;5.10;;
32200;SDS011;18701;45.588;5.288;2023-11-19T13:38:18;10.43;;;4.35;;
32200;SDS011;18701;45.588;5.288;2023-11-19T13:40:43;10.50;;;4.80;;
32200;SDS011;18701;45.588;5.288;2023-11-19T13:43:09;13.75;;;4.15;;
32200;SDS011;18701;45.588;5.288;2023-11-19T13:45:34;8.25;;;4.00;;
32200;SDS011;18701;45.588;5.288;2023-11-19T13:48:00;10.38;;;4.25;;
32200;SDS011;18701;45.588;5.288;2023-11-19T13:50:26;8.93;;;4.88;;
32200;SDS011;18701;45.588;5.288;2023-11-19T13:52:53;9.13;;;4.47;;
32200;SDS011;18701;45.588;5.288;2023-11-19T13:55:19;10.48;;;5.55;;
32200;SDS011;18701;45.588;5.288;2023-11-19T13:57:45;11.43;;;4.82;;
32200;SDS011;18701;45.588;5.288;2023-11-19T14:00:12;9.18;;;4.82;;
32200;SDS011;18701;45.588;5.288;2023-11-19T14:02:41;9.20;;;4.88;;
32200;SDS011;18701;45.588;5.288;2023-11-19T14:05:07;8.95;;;4.78;;
32200;SDS011;18701;45.588;5.288;2023-11-19T14:07:33;8.25;;;4.57;;
32200;SDS011;18701;45.588;5.288;2023-11-19T14:09:59;7.97;;;4.18;;
32200;SDS011;18701;45.588;5.288;2023-11-19T14:12:24;9.82;;;4.28;;
32200;SDS011;18701;45.588;5.288;2023-11-19T14:14:50;8.05;;;4.13;;
32200;SDS011;18701;45.588;5.288;2023-11-19T14:17:16;11.18;;;4.60;;
32200;SDS011;18701;45.588;5.288;2023-11-19T14:19:42;12.32;;;4.38;;
32200;SDS011;18701;45.588;5.288;2023-11-19T14:22:08;6.63;;;4.30;;
32200;SDS011;18701;45.588;5.288;2023-11-19T14:24:33;12.13;;;5.32;;
32200;SDS011;18701;45.588;5.288;2023-11-19T14:26:59;11.70;;;5.03;;
32200;SDS011;18701;45.588;5.288;2023-11-19T14:29:26;10.30;;;5.65;;
32200;SDS011;18701;45.588;5.288;2023-11-19T14:31:52;13.65;;;5.43;;
32200;SDS011;18701;45.588;5.288;2023-11-19T14:34:20;8.95;;;5.57;;
32200;SDS011;18701;45.588;5.288;2023-11-19T14:36:46;9.43;;;4.60;;
32200;SDS011;18701;45.588;5.288;2023-11-19T14:39:12;10.00;;;5.13;;
32200;SDS011;18701;45.588;5.288;2023-11-19T14:41:38;12.48;;;4.43;;
32200;SDS011;18701;45.588;5.288;2023-11-19T14:44:04;11.30;;;4.63;;
32200;SDS011;18701;45.588;5.288;2023-11-19T14:46:30;11.98;;;4.38;;
32200;SDS011;18701;45.588;5.288;2023-11-19T14:48:56;8.98;;;4.43;;
32200;SDS011;18701;45.588;5.288;2023-11-19T14:51:21;9.60;;;4.70;;
32200;SDS011;18701;45.588;5.288;2023-11-19T14:53:47;8.10;;;4.72;;
32200;SDS011;18701;45.588;5.288;2023-11-19T14:56:12;11.13;;;6.95;;
32200;SDS011;18701;45.588;5.288;2023-11-19T14:58:38;12.85;;;5.70;;
32200;SDS011;18701;45.588;5.288;2023-11-19T15:01:04;15.48;;;4.70;;
32200;SDS011;18701;45.588;5.288;2023-11-19T15:03:32;8.60;;;4.10;;
32200;SDS011;18701;45.588;5.288;2023-11-19T15:05:58;12.57;;;4.57;;
32200;SDS011;18701;45.588;5.288;2023-11-19T15:08:24;8.40;;;4.53;;
32200;SDS011;18701;45.588;5.288;2023-11-19T15:10:50;11.15;;;3.90;;
32200;SDS011;18701;45.588;5.288;2023-11-19T15:13:15;8.77;;;4.22;;
32200;SDS011;18701;45.588;5.288;2023-11-19T15:15:41;11.02;;;4.60;;